createdAt,value
2019-02-12T00:01:37.979Z,2.20
2019-02-12T00:04:09.002Z,2.20
2019-02-12T00:06:40.096Z,2.10
2019-02-12T00:09:11.376Z,2.00
2019-02-12T00:11:43.514Z,2.00
2019-02-12T00:14:14.634Z,2.00
2019-02-12T00:16:45.785Z,2.00
2019-02-12T00:19:16.836Z,2.00
2019-02-12T00:21:47.907Z,2.00
2019-02-12T00:24:19.019Z,2.00
2019-02-12T00:26:50.099Z,2.00
2019-02-12T00:29:21.173Z,2.00
2019-02-12T00:31:52.233Z,1.90
2019-02-12T00:34:23.271Z,2.00
2019-02-12T00:36:54.353Z,1.90
2019-02-12T00:39:25.401Z,2.00
2019-02-12T00:41:56.463Z,2.00
2019-02-12T00:44:27.518Z,2.00
2019-02-12T00:46:58.586Z,2.00
2019-02-12T00:49:29.662Z,1.90
2019-02-12T00:52:00.815Z,1.90
2019-02-12T00:54:31.891Z,1.80
2019-02-12T00:57:02.990Z,1.90
2019-02-12T00:59:34.034Z,1.90
2019-02-12T01:02:05.121Z,1.90
2019-02-12T01:04:36.145Z,1.90
2019-02-12T01:07:07.246Z,1.90
2019-02-12T01:09:38.334Z,1.70
2019-02-12T01:12:09.386Z,1.60
2019-02-12T01:14:40.464Z,1.50
2019-02-12T01:17:11.505Z,1.40
2019-02-12T01:19:42.550Z,1.40
2019-02-12T01:22:13.693Z,1.30
2019-02-12T01:24:44.711Z,1.30
2019-02-12T01:27:15.771Z,1.30
2019-02-12T01:29:46.794Z,1.30
2019-02-12T01:32:17.850Z,1.30
2019-02-12T01:34:49.003Z,1.40
2019-02-12T01:37:20.144Z,1.30
2019-02-12T01:39:51.236Z,1.30
2019-02-12T01:42:27.285Z,1.30
2019-02-12T01:45:01.048Z,1.30
2019-02-12T01:47:32.082Z,1.40
2019-02-12T01:50:03.276Z,1.40
2019-02-12T01:52:35.375Z,1.40
2019-02-12T01:55:06.619Z,1.40
2019-02-12T01:57:37.767Z,1.40
2019-02-12T02:00:11.044Z,1.40
2019-02-12T02:02:42.049Z,1.50
2019-02-12T02:05:13.112Z,1.50
2019-02-12T02:07:44.146Z,1.50
2019-02-12T02:10:19.063Z,1.50
2019-02-12T02:12:50.138Z,1.50
2019-02-12T02:15:21.162Z,1.60
2019-02-12T02:17:52.226Z,1.60
2019-02-12T02:20:23.263Z,1.60
2019-02-12T02:22:54.337Z,1.60
2019-02-12T02:25:25.345Z,1.70
2019-02-12T02:27:56.442Z,1.60
2019-02-12T02:30:27.464Z,1.60
2019-02-12T02:32:58.560Z,1.50
2019-02-12T02:35:29.594Z,1.50
2019-02-12T02:38:00.734Z,1.60
2019-02-12T02:40:31.824Z,1.60
2019-02-12T02:43:02.887Z,1.70
2019-02-12T02:45:34.125Z,1.80
2019-02-12T02:48:05.145Z,1.90
2019-02-12T02:50:36.223Z,2.00
2019-02-12T02:53:07.273Z,2.00
2019-02-12T02:55:38.358Z,2.10
2019-02-12T02:58:09.388Z,2.10
2019-02-12T03:00:40.483Z,2.20
2019-02-12T03:03:11.548Z,2.30
2019-02-12T03:05:43.706Z,2.30
2019-02-12T03:08:14.732Z,2.30
2019-02-12T03:10:45.812Z,2.30
2019-02-12T03:13:16.969Z,2.30
2019-02-12T03:15:48.010Z,2.30
2019-02-12T03:18:19.063Z,2.30
2019-02-12T03:20:50.239Z,2.30
2019-02-12T03:23:21.296Z,2.30
2019-02-12T03:25:52.366Z,2.30
2019-02-12T03:28:23.356Z,2.30
2019-02-12T03:30:54.493Z,2.30
2019-02-12T03:33:25.559Z,2.40
2019-02-12T03:35:56.602Z,2.30
2019-02-12T03:38:27.680Z,2.30
2019-02-12T03:40:58.736Z,2.30
2019-02-12T03:43:29.806Z,2.30
2019-02-12T03:46:00.847Z,2.30
2019-02-12T03:48:31.892Z,2.30
2019-02-12T03:51:02.971Z,2.20
2019-02-12T03:53:34.033Z,2.20
2019-02-12T03:56:05.090Z,2.20
2019-02-12T03:58:36.243Z,2.20
2019-02-12T04:01:07.320Z,2.20
2019-02-12T04:03:38.471Z,2.20
2019-02-12T04:06:09.523Z,2.20
2019-02-12T04:08:40.613Z,2.20
2019-02-12T04:11:11.676Z,2.20
2019-02-12T04:13:42.750Z,2.20
2019-02-12T04:16:13.794Z,2.20
2019-02-12T04:18:44.910Z,2.20
2019-02-12T04:21:15.937Z,2.20
2019-02-12T04:23:46.998Z,2.10
2019-02-12T04:26:18.129Z,2.20
2019-02-12T04:28:49.121Z,2.20
2019-02-12T04:31:20.205Z,2.20
2019-02-12T04:33:53.834Z,2.10
2019-02-12T04:36:24.987Z,2.10
2019-02-12T04:38:56.064Z,2.10
2019-02-12T04:41:27.141Z,2.10
2019-02-12T04:43:58.207Z,2.10
2019-02-12T04:46:29.436Z,2.10
2019-02-12T04:49:00.554Z,2.10
2019-02-12T04:51:31.646Z,2.10
2019-02-12T04:54:02.685Z,2.10
2019-02-12T04:56:33.787Z,2.00
2019-02-12T04:59:04.851Z,2.10
2019-02-12T05:01:35.933Z,2.10
2019-02-12T05:04:06.994Z,2.10
2019-02-12T05:06:38.077Z,2.00
2019-02-12T05:09:20.611Z,2.00
2019-02-12T05:11:54.226Z,2.00
2019-02-12T05:14:25.360Z,2.00
2019-02-12T05:16:56.430Z,2.00
2019-02-12T05:19:27.585Z,2.00
2019-02-12T05:21:58.620Z,2.00
2019-02-12T05:24:29.662Z,2.00
2019-02-12T05:27:02.053Z,2.00
2019-02-12T05:29:33.094Z,2.00
2019-02-12T05:32:04.178Z,2.00
2019-02-12T05:34:35.268Z,2.00
2019-02-12T05:37:06.389Z,2.00
2019-02-12T05:39:37.473Z,2.00
2019-02-12T05:42:09.611Z,2.00
2019-02-12T05:44:40.736Z,2.00
2019-02-12T05:47:11.883Z,2.00
2019-02-12T05:49:42.945Z,2.00
2019-02-12T05:52:14.300Z,2.00
2019-02-12T05:54:45.442Z,2.00
2019-02-12T05:57:17.510Z,2.00
2019-02-12T05:59:48.612Z,2.00
2019-02-12T06:02:19.747Z,2.00
2019-02-12T06:04:50.901Z,2.00
2019-02-12T06:07:22.027Z,2.00
2019-02-12T06:09:53.726Z,2.00
2019-02-12T06:12:26.958Z,2.00
2019-02-12T06:14:58.248Z,1.90
2019-02-12T06:17:29.575Z,1.90
2019-02-12T06:20:00.806Z,1.90
2019-02-12T06:22:36.138Z,1.90
2019-02-12T06:25:09.984Z,1.90
2019-02-12T06:27:43.972Z,1.90
2019-02-12T06:30:15.868Z,1.90
2019-02-12T06:32:47.643Z,1.90
2019-02-12T06:35:18.699Z,1.90
2019-02-12T06:37:50.929Z,1.90
2019-02-12T06:40:22.059Z,1.90
2019-02-12T06:42:53.162Z,1.80
2019-02-12T06:45:24.207Z,1.80
2019-02-12T06:47:55.369Z,1.80
2019-02-12T06:50:26.491Z,1.80
2019-02-12T06:52:57.621Z,1.80
2019-02-12T06:55:29.647Z,1.90
2019-02-12T06:58:00.701Z,1.90
2019-02-12T07:00:31.796Z,1.90
2019-02-12T07:03:51.515Z,1.90
2019-02-12T07:06:45.914Z,1.90
2019-02-12T07:09:47.016Z,2.00
2019-02-12T07:12:43.694Z,2.00
2019-02-12T07:16:09.371Z,2.00
2019-02-12T07:19:17.415Z,2.00
2019-02-12T07:21:57.005Z,2.10
2019-02-12T07:25:30.521Z,2.20
2019-02-12T07:28:20.067Z,2.30
2019-02-12T07:31:29.142Z,2.50
2019-02-12T07:34:47.544Z,2.70
2019-02-12T07:37:41.526Z,2.90
2019-02-12T07:40:47.290Z,2.90
2019-02-12T07:43:41.448Z,2.90
2019-02-12T07:46:33.056Z,3.00
2019-02-12T07:49:33.536Z,3.00
2019-02-12T07:52:45.873Z,3.00
2019-02-12T07:56:01.957Z,3.10
2019-02-12T07:59:17.780Z,3.10
2019-02-12T08:02:26.234Z,3.10
2019-02-12T08:05:33.696Z,3.00
2019-02-12T08:08:32.208Z,3.00
2019-02-12T08:11:17.919Z,3.00
2019-02-12T08:14:26.088Z,3.00
2019-02-12T08:17:14.699Z,3.10
2019-02-12T08:20:32.047Z,3.10
2019-02-12T08:23:41.682Z,3.20
2019-02-12T08:26:47.692Z,3.20
2019-02-12T08:29:40.982Z,3.20
2019-02-12T08:32:49.407Z,3.20
2019-02-12T08:36:32.150Z,3.20
2019-02-12T08:39:40.337Z,3.30
2019-02-12T08:42:44.383Z,3.30
2019-02-12T08:45:59.359Z,3.30
2019-02-12T08:49:05.968Z,3.40
2019-02-12T08:52:18.837Z,3.50
2019-02-12T08:55:36.900Z,3.50
2019-02-12T08:58:36.262Z,3.50
2019-02-12T09:01:57.551Z,3.60
2019-02-12T09:05:27.739Z,3.60
2019-02-12T09:08:27.540Z,3.70
2019-02-12T09:11:36.313Z,3.60
2019-02-12T09:14:43.863Z,3.60
2019-02-12T09:17:46.017Z,3.50
2019-02-12T09:20:47.921Z,3.50
2019-02-12T09:23:59.865Z,3.60
2019-02-12T09:27:25.183Z,3.70
2019-02-12T09:30:31.706Z,3.60
2019-02-12T09:33:46.824Z,3.70
2019-02-12T09:36:50.788Z,3.80
2019-02-12T09:39:49.155Z,4.10
2019-02-12T09:42:40.627Z,4.30
2019-02-12T09:45:48.701Z,4.40
2019-02-12T09:49:03.649Z,4.50
2019-02-12T09:51:52.871Z,4.60
2019-02-12T09:54:56.988Z,4.70
2019-02-12T09:58:20.805Z,4.70
2019-02-12T10:01:35.792Z,4.60
2019-02-12T10:04:39.502Z,4.70
2019-02-12T10:07:37.785Z,4.60
2019-02-12T10:10:47.623Z,4.80
2019-02-12T10:13:24.001Z,4.70
2019-02-12T10:16:51.246Z,4.70
2019-02-12T10:19:36.426Z,4.60
2019-02-12T10:22:54.782Z,4.70
2019-02-12T10:25:30.948Z,5.00
2019-02-12T10:28:50.909Z,5.10
2019-02-12T10:31:44.448Z,5.20
2019-02-12T10:34:15.551Z,5.20
2019-02-12T10:36:46.589Z,5.20
2019-02-12T10:39:17.879Z,5.40
2019-02-12T10:41:48.909Z,5.50
2019-02-12T10:44:19.959Z,5.60
2019-02-12T10:46:51.071Z,5.60
2019-02-12T10:49:22.169Z,5.70
2019-02-12T10:51:53.385Z,5.80
2019-02-12T10:54:27.970Z,5.80
2019-02-12T10:56:57.214Z,6.10
2019-02-12T10:59:28.326Z,6.40
2019-02-12T11:02:11.063Z,6.60
2019-02-12T11:04:43.102Z,6.90
2019-02-12T11:07:14.174Z,6.90
2019-02-12T11:09:45.240Z,6.80
2019-02-12T11:12:16.371Z,6.30
2019-02-12T11:14:47.475Z,5.80
2019-02-12T11:17:18.637Z,5.50
2019-02-12T11:19:49.670Z,5.40
2019-02-12T11:22:20.759Z,5.30
2019-02-12T11:24:51.820Z,5.10
2019-02-12T11:27:39.185Z,5.30
2019-02-12T11:30:10.442Z,5.40
2019-02-12T11:32:41.551Z,5.30
2019-02-12T11:35:12.650Z,5.30
2019-02-12T11:37:43.761Z,5.20
2019-02-12T11:40:15.066Z,5.20
2019-02-12T11:42:46.191Z,5.70
2019-02-12T11:45:17.333Z,6.10
2019-02-12T11:47:48.391Z,6.50
2019-02-12T11:50:19.457Z,6.60
2019-02-12T11:52:50.676Z,6.40
2019-02-12T11:55:21.748Z,6.20
2019-02-12T11:57:52.844Z,6.00
2019-02-12T12:00:31.025Z,5.80
2019-02-12T12:03:02.091Z,5.80
2019-02-12T12:05:33.229Z,6.10
2019-02-12T12:08:04.297Z,6.50
2019-02-12T12:10:35.550Z,6.40
2019-02-12T12:13:06.585Z,6.20
2019-02-12T12:15:37.680Z,6.40
2019-02-12T12:18:08.729Z,6.50
2019-02-12T12:20:39.776Z,6.40
2019-02-12T12:23:10.825Z,6.50
2019-02-12T12:25:41.902Z,6.60
2019-02-12T12:28:12.998Z,6.40
2019-02-12T12:30:45.238Z,6.30
2019-02-12T12:33:16.371Z,6.30
2019-02-12T12:35:47.416Z,6.10
2019-02-12T12:38:18.536Z,6.10
2019-02-12T12:40:49.613Z,6.10
2019-02-12T12:43:20.721Z,6.20
2019-02-12T12:45:51.775Z,6.30
2019-02-12T12:48:22.834Z,6.50
2019-02-12T12:50:54.055Z,6.30
2019-02-12T12:53:25.203Z,6.10
2019-02-12T12:55:56.334Z,6.30
2019-02-12T12:58:27.455Z,6.70
2019-02-12T13:00:58.677Z,6.80
2019-02-12T13:03:29.819Z,6.90
2019-02-12T13:06:00.928Z,6.60
2019-02-12T13:08:32.091Z,6.30
2019-02-12T13:11:03.216Z,6.30
2019-02-12T13:13:34.429Z,6.50
2019-02-12T13:16:05.703Z,6.70
2019-02-12T13:18:36.847Z,6.90
2019-02-12T13:21:07.980Z,6.90
2019-02-12T13:23:39.194Z,6.80
2019-02-12T13:26:10.420Z,6.50
2019-02-12T13:28:41.628Z,6.40
2019-02-12T13:31:12.808Z,6.20
2019-02-12T13:33:44.350Z,6.30
2019-02-12T13:36:15.600Z,6.30
2019-02-12T13:38:46.672Z,6.10
2019-02-12T13:41:17.804Z,5.90
2019-02-12T13:43:48.895Z,5.90
2019-02-12T13:46:20.079Z,5.90
2019-02-12T13:48:51.188Z,5.80
2019-02-12T13:51:22.343Z,5.70
2019-02-12T13:53:53.466Z,5.70
2019-02-12T13:56:24.554Z,5.60
2019-02-12T13:58:55.660Z,5.60
2019-02-12T14:01:26.783Z,5.60
2019-02-12T14:03:58.070Z,5.60
2019-02-12T14:06:29.090Z,5.50
2019-02-12T14:09:00.310Z,5.50
2019-02-12T14:11:31.472Z,5.50
2019-02-12T14:14:03.649Z,5.50
2019-02-12T14:16:34.862Z,5.30
2019-02-12T14:19:06.065Z,5.30
2019-02-12T14:21:37.230Z,5.30
2019-02-12T14:24:08.395Z,5.30
2019-02-12T14:26:39.517Z,5.30
2019-02-12T14:29:12.723Z,5.30
2019-02-12T14:31:52.603Z,5.30
2019-02-12T14:34:16.568Z,5.30
2019-02-12T14:36:47.804Z,5.20
2019-02-12T14:39:18.922Z,5.20
2019-02-12T14:41:55.292Z,5.20
2019-02-12T14:44:26.926Z,5.20
2019-02-12T14:46:58.669Z,5.10
2019-02-12T14:49:31.087Z,5.10
2019-02-12T14:52:02.352Z,5.10
2019-02-12T14:54:33.625Z,5.10
2019-02-12T14:57:05.115Z,5.00
2019-02-12T14:59:46.582Z,4.90
2019-02-12T15:02:17.902Z,4.90
2019-02-12T15:04:49.278Z,4.80
2019-02-12T15:07:20.453Z,4.70
2019-02-12T15:09:51.583Z,4.70
2019-02-12T15:12:22.753Z,4.70
2019-02-12T15:14:53.936Z,4.70
2019-02-12T15:17:25.020Z,4.60
2019-02-12T15:19:56.137Z,4.60
2019-02-12T15:22:27.451Z,4.60
2019-02-12T15:24:58.642Z,4.60
2019-02-12T15:27:29.849Z,4.60
2019-02-12T15:30:00.997Z,4.50
2019-02-12T15:32:32.166Z,4.50
2019-02-12T15:35:03.501Z,4.40
2019-02-12T15:37:34.641Z,4.40
2019-02-12T15:40:06.992Z,4.40
2019-02-12T15:42:38.136Z,4.40
2019-02-12T15:45:11.730Z,4.40
2019-02-12T15:47:42.935Z,4.30
2019-02-12T15:50:14.093Z,4.30
2019-02-12T15:52:45.253Z,4.20
2019-02-12T15:55:16.492Z,4.20
2019-02-12T15:57:47.589Z,4.20
2019-02-12T16:00:20.696Z,4.10
2019-02-12T16:02:51.908Z,4.10
2019-02-12T16:05:22.966Z,4.00
2019-02-12T16:07:54.045Z,4.00
2019-02-12T16:10:25.201Z,3.90
2019-02-12T16:12:56.349Z,3.90
2019-02-12T16:15:27.547Z,3.80
2019-02-12T16:18:00.214Z,3.70
2019-02-12T16:20:32.893Z,3.70
2019-02-12T16:23:04.191Z,3.70
2019-02-12T16:25:35.306Z,3.60
2019-02-12T16:28:06.436Z,3.60
2019-02-12T16:30:37.542Z,3.60
2019-02-12T16:33:08.666Z,3.60
2019-02-12T16:35:39.747Z,3.60
2019-02-12T16:38:10.971Z,3.50
2019-02-12T16:40:42.111Z,3.50
2019-02-12T16:43:13.282Z,3.40
2019-02-12T16:45:54.403Z,3.40
2019-02-12T16:48:25.621Z,3.30
2019-02-12T16:50:56.709Z,3.30
2019-02-12T16:53:28.887Z,3.20
2019-02-12T16:56:08.140Z,3.10
2019-02-12T16:58:33.996Z,3.00
2019-02-12T17:01:05.154Z,3.00
2019-02-12T17:03:36.347Z,2.90
2019-02-12T17:06:08.534Z,2.80
2019-02-12T17:08:39.729Z,2.70
2019-02-12T17:11:10.864Z,2.60
2019-02-12T17:13:42.550Z,2.60
2019-02-12T17:16:13.799Z,2.50
2019-02-12T17:18:45.111Z,2.40
2019-02-12T17:21:16.348Z,2.30
2019-02-12T17:23:47.476Z,2.20
2019-02-12T17:26:18.672Z,2.20
2019-02-12T17:28:49.850Z,2.10
2019-02-12T17:31:21.033Z,2.00
2019-02-12T17:33:52.261Z,2.00
2019-02-12T17:36:23.361Z,1.90
2019-02-12T17:38:54.679Z,2.00
2019-02-12T17:41:25.810Z,2.00
2019-02-12T17:43:56.902Z,2.00
2019-02-12T17:46:30.634Z,2.00
2019-02-12T17:49:01.814Z,1.90
2019-02-12T17:51:33.101Z,1.90
2019-02-12T17:54:04.731Z,1.80
2019-02-12T17:56:35.930Z,1.80
2019-02-12T17:59:07.037Z,1.80
2019-02-12T18:01:38.243Z,1.80
2019-02-12T18:04:09.473Z,1.80
2019-02-12T18:06:40.644Z,1.80
2019-02-12T18:09:11.838Z,1.70
2019-02-12T18:11:43.040Z,1.70
2019-02-12T18:14:14.172Z,1.70
2019-02-12T18:16:45.481Z,1.70
2019-02-12T18:19:16.865Z,1.60
2019-02-12T18:21:48.163Z,1.60
2019-02-12T18:24:19.366Z,1.60
2019-02-12T18:26:53.595Z,1.60
2019-02-12T18:29:24.833Z,1.50
2019-02-12T18:31:56.047Z,1.50
2019-02-12T18:34:27.668Z,1.50
2019-02-12T18:36:59.917Z,1.40
2019-02-12T18:39:31.042Z,1.50
2019-02-12T18:42:02.165Z,1.50
2019-02-12T18:44:33.302Z,1.50
2019-02-12T18:47:04.426Z,1.50
2019-02-12T18:49:36.330Z,1.50
2019-02-12T18:52:07.708Z,1.50
2019-02-12T18:54:39.118Z,1.40
2019-02-12T18:57:10.369Z,1.40
2019-02-12T18:59:41.660Z,1.40
2019-02-12T19:02:13.036Z,1.40
2019-02-12T19:04:44.214Z,1.40
2019-02-12T19:07:15.558Z,1.40
2019-02-12T19:09:46.896Z,1.40
2019-02-12T19:12:18.428Z,1.40
2019-02-12T19:14:49.652Z,1.40
2019-02-12T19:17:20.954Z,1.30
2019-02-12T19:19:52.268Z,1.30
2019-02-12T19:22:24.632Z,1.20
2019-02-12T19:24:55.804Z,1.10
2019-02-12T19:27:27.079Z,1.10
2019-02-12T19:29:58.252Z,1.10
2019-02-12T19:32:29.525Z,1.10
2019-02-12T19:35:00.772Z,1.00
2019-02-12T19:37:32.032Z,1.00
2019-02-12T19:40:04.345Z,0.90
2019-02-12T19:42:35.616Z,0.80
2019-02-12T19:45:09.407Z,0.80
2019-02-12T19:47:41.525Z,0.70
2019-02-12T19:50:12.716Z,0.70
2019-02-12T19:52:44.065Z,0.70
2019-02-12T19:55:15.221Z,0.80
2019-02-12T19:57:46.350Z,0.90
2019-02-12T20:00:19.209Z,0.90
2019-02-12T20:02:50.374Z,0.90
2019-02-12T20:05:23.179Z,0.90
2019-02-12T20:07:54.464Z,0.90
2019-02-12T20:10:26.759Z,0.80
2019-02-12T20:12:58.000Z,0.70
2019-02-12T20:15:29.202Z,0.60
2019-02-12T20:18:00.449Z,0.50
2019-02-12T20:20:31.852Z,0.40
2019-02-12T20:23:03.039Z,0.30
2019-02-12T20:25:34.297Z,0.20
2019-02-12T20:28:05.443Z,0.10
2019-02-12T20:30:36.619Z,0.00
2019-02-12T20:33:07.889Z,-0.10
2019-02-12T20:35:39.019Z,-0.20
2019-02-12T20:38:10.173Z,-0.20
2019-02-12T20:40:41.479Z,-0.20
2019-02-12T20:43:12.743Z,-0.20
2019-02-12T20:45:43.939Z,-0.20
2019-02-12T20:48:15.773Z,-0.30
2019-02-12T20:50:48.676Z,-0.40
2019-02-12T20:53:20.242Z,-0.40
2019-02-12T20:55:51.472Z,-0.30
2019-02-12T20:58:22.714Z,-0.30
2019-02-12T21:00:54.267Z,-0.10
2019-02-12T21:03:25.499Z,0.00
2019-02-12T21:05:56.549Z,0.00
2019-02-12T21:08:27.784Z,0.00
2019-02-12T21:10:59.309Z,0.00
2019-02-12T21:13:30.651Z,0.00
2019-02-12T21:16:01.902Z,-0.10
2019-02-12T21:18:34.363Z,-0.10
2019-02-12T21:21:06.086Z,-0.10
2019-02-12T21:23:37.239Z,-0.20
2019-02-12T21:26:08.457Z,-0.30
2019-02-12T21:28:39.778Z,-0.30
2019-02-12T21:31:10.983Z,-0.30
2019-02-12T21:33:42.118Z,-0.40
2019-02-12T21:36:13.213Z,-0.30
2019-02-12T21:38:44.606Z,-0.30
2019-02-12T21:41:15.721Z,-0.30
2019-02-12T21:43:48.096Z,-0.20
2019-02-12T21:46:19.236Z,0.00
2019-02-12T21:48:50.616Z,0.10
2019-02-12T21:51:21.924Z,0.20
2019-02-12T21:53:53.096Z,0.40
2019-02-12T21:56:24.298Z,0.40
2019-02-12T21:58:55.435Z,0.40
2019-02-12T22:01:26.523Z,0.30
2019-02-12T22:03:57.666Z,0.30
2019-02-12T22:06:28.769Z,0.40
2019-02-12T22:09:00.060Z,0.40
2019-02-12T22:11:31.245Z,0.30
2019-02-12T22:14:02.505Z,0.30
2019-02-12T22:16:33.594Z,0.20
2019-02-12T22:19:04.759Z,0.10
2019-02-12T22:21:36.069Z,0.10
2019-02-12T22:24:07.324Z,0.10
2019-02-12T22:26:38.601Z,0.10
2019-02-12T22:29:09.715Z,0.10
2019-02-12T22:31:40.866Z,0.10
2019-02-12T22:34:12.106Z,0.00
2019-02-12T22:36:43.616Z,0.00
2019-02-12T22:39:14.745Z,-0.10
2019-02-12T22:41:45.904Z,-0.10
2019-02-12T22:44:16.981Z,-0.10
2019-02-12T22:46:48.324Z,-0.10
2019-02-12T22:49:19.387Z,-0.10
2019-02-12T22:51:50.575Z,-0.10
2019-02-12T22:54:21.708Z,-0.10
2019-02-12T22:56:52.891Z,-0.10
2019-02-12T22:59:24.086Z,-0.10
2019-02-12T23:01:55.253Z,0.00
2019-02-12T23:04:26.431Z,0.00
2019-02-12T23:06:57.801Z,0.00
2019-02-12T23:09:28.913Z,-0.10
2019-02-12T23:12:00.049Z,-0.20
2019-02-12T23:14:31.107Z,-0.20
2019-02-12T23:17:03.384Z,-0.10
2019-02-12T23:19:34.510Z,-0.10
2019-02-12T23:22:05.660Z,-0.10
2019-02-12T23:24:36.951Z,-0.10
2019-02-12T23:27:08.132Z,-0.10
2019-02-12T23:29:39.177Z,-0.10
2019-02-12T23:32:10.271Z,-0.10
2019-02-12T23:34:41.394Z,-0.10
2019-02-12T23:37:12.734Z,-0.10
2019-02-12T23:39:43.877Z,-0.10
2019-02-12T23:42:15.065Z,-0.10
2019-02-12T23:44:46.372Z,0.00
2019-02-12T23:47:17.729Z,0.10
2019-02-12T23:49:49.396Z,0.10
2019-02-12T23:52:20.491Z,0.10
2019-02-12T23:54:51.673Z,0.20
2019-02-12T23:57:22.729Z,0.20
2019-02-12T23:59:53.810Z,0.20
